Silas, Alabama
Current Conditions -  °F | °C
As of 7:58 AM on Thursday 27 Nov 2014 (Local Time) from KMEI Reporting Station
Clear Clear  
Wind Chill: 34°   Ceiling: Unl
Heat Index: 41°   Visibility: 10mi
Dew Point: 32°   Wind: 13mph
Humidity: 70%   Direction: 350°N
Pressure: 30.42"   Gusts: NA
Location:  31.77°N, 88.33°W
Report Text: KMEI 271358Z 35011KT 10SM CLR 05/00 A3042 RMK AO2 SLP301 T00500000
Loading
Personal Weather Stations






























Interactive Weather Map New forecast layout! Learn more

10-Day Weather Forecast

Advertisements
Track Severe Weather on mobile